sensor_id;sensor_type;location;lat;lon;timestamp;temperature;humidity
38514;DHT22;24282;48.400;10.808;2023-04-16T00:02:11;6.70;86.80
38514;DHT22;24282;48.400;10.808;2023-04-16T00:04:36;6.70;86.70
38514;DHT22;24282;48.400;10.808;2023-04-16T00:07:02;6.70;86.40
38514;DHT22;24282;48.400;10.808;2023-04-16T00:09:28;6.70;86.50
38514;DHT22;24282;48.400;10.808;2023-04-16T00:11:54;6.70;86.60
38514;DHT22;24282;48.400;10.808;2023-04-16T00:14:20;6.70;86.60
38514;DHT22;24282;48.400;10.808;2023-04-16T00:16:46;6.70;86.60
38514;DHT22;24282;48.400;10.808;2023-04-16T00:19:11;6.70;86.60
38514;DHT22;24282;48.400;10.808;2023-04-16T00:21:37;6.70;86.60
38514;DHT22;24282;48.400;10.808;2023-04-16T00:24:03;6.70;86.60
38514;DHT22;24282;48.400;10.808;2023-04-16T00:26:29;6.70;86.70
38514;DHT22;24282;48.400;10.808;2023-04-16T00:28:54;6.70;86.90
38514;DHT22;24282;48.400;10.808;2023-04-16T00:31:28;6.70;86.40
38514;DHT22;24282;48.400;10.808;2023-04-16T00:33:55;6.70;86.40
38514;DHT22;24282;48.400;10.808;2023-04-16T00:36:23;6.70;86.60
38514;DHT22;24282;48.400;10.808;2023-04-16T00:38:49;6.70;86.70
38514;DHT22;24282;48.400;10.808;2023-04-16T00:41:15;6.70;86.60
38514;DHT22;24282;48.400;10.808;2023-04-16T00:43:41;6.70;86.70
38514;DHT22;24282;48.400;10.808;2023-04-16T00:46:07;6.70;86.70
38514;DHT22;24282;48.400;10.808;2023-04-16T00:48:37;6.70;86.70
38514;DHT22;24282;48.400;10.808;2023-04-16T00:51:07;6.70;86.60
38514;DHT22;24282;48.400;10.808;2023-04-16T00:53:33;6.70;86.60
38514;DHT22;24282;48.400;10.808;2023-04-16T00:56:01;6.70;86.50
38514;DHT22;24282;48.400;10.808;2023-04-16T00:58:27;6.70;86.60
38514;DHT22;24282;48.400;10.808;2023-04-16T01:00:53;6.70;86.60
38514;DHT22;24282;48.400;10.808;2023-04-16T01:03:19;6.70;86.70
38514;DHT22;24282;48.400;10.808;2023-04-16T01:05:45;6.60;86.80
38514;DHT22;24282;48.400;10.808;2023-04-16T01:08:20;6.60;86.80
38514;DHT22;24282;48.400;10.808;2023-04-16T01:10:46;6.60;87.00
38514;DHT22;24282;48.400;10.808;2023-04-16T01:13:12;6.60;86.90
38514;DHT22;24282;48.400;10.808;2023-04-16T01:15:38;6.60;87.00
38514;DHT22;24282;48.400;10.808;2023-04-16T01:18:17;6.70;86.90
38514;DHT22;24282;48.400;10.808;2023-04-16T01:20:44;6.70;86.40
38514;DHT22;24282;48.400;10.808;2023-04-16T01:23:10;6.70;86.20
38514;DHT22;24282;48.400;10.808;2023-04-16T01:25:37;6.70;86.50
38514;DHT22;24282;48.400;10.808;2023-04-16T01:28:03;6.70;86.60
38514;DHT22;24282;48.400;10.808;2023-04-16T01:30:29;6.60;86.80
38514;DHT22;24282;48.400;10.808;2023-04-16T01:33:09;6.60;87.00
38514;DHT22;24282;48.400;10.808;2023-04-16T01:35:35;6.60;87.20
38514;DHT22;24282;48.400;10.808;2023-04-16T01:38:01;6.60;87.30
38514;DHT22;24282;48.400;10.808;2023-04-16T01:40:28;6.60;87.30
38514;DHT22;24282;48.400;10.808;2023-04-16T01:42:53;6.50;87.20
38514;DHT22;24282;48.400;10.808;2023-04-16T01:45:19;6.50;87.20
38514;DHT22;24282;48.400;10.808;2023-04-16T01:47:45;6.60;87.20
38514;DHT22;24282;48.400;10.808;2023-04-16T01:50:11;6.60;87.10
38514;DHT22;24282;48.400;10.808;2023-04-16T01:52:37;6.60;87.10
38514;DHT22;24282;48.400;10.808;2023-04-16T01:55:03;6.60;87.30
38514;DHT22;24282;48.400;10.808;2023-04-16T01:57:29;6.60;87.40
38514;DHT22;24282;48.400;10.808;2023-04-16T01:59:55;6.50;87.50
38514;DHT22;24282;48.400;10.808;2023-04-16T02:02:21;6.50;87.50
38514;DHT22;24282;48.400;10.808;2023-04-16T02:04:54;6.50;87.60
38514;DHT22;24282;48.400;10.808;2023-04-16T02:07:19;6.60;87.80
38514;DHT22;24282;48.400;10.808;2023-04-16T02:09:45;6.50;87.60
38514;DHT22;24282;48.400;10.808;2023-04-16T02:12:11;6.50;87.60
38514;DHT22;24282;48.400;10.808;2023-04-16T02:14:37;6.60;87.70
38514;DHT22;24282;48.400;10.808;2023-04-16T02:17:03;6.60;87.60
38514;DHT22;24282;48.400;10.808;2023-04-16T02:19:42;6.50;87.60
38514;DHT22;24282;48.400;10.808;2023-04-16T02:22:09;6.60;87.50
38514;DHT22;24282;48.400;10.808;2023-04-16T02:24:35;6.60;87.50
38514;DHT22;24282;48.400;10.808;2023-04-16T02:27:05;6.60;87.60
38514;DHT22;24282;48.400;10.808;2023-04-16T02:29:30;6.60;87.60
38514;DHT22;24282;48.400;10.808;2023-04-16T02:32:07;6.60;87.60
38514;DHT22;24282;48.400;10.808;2023-04-16T02:34:33;6.50;87.70
38514;DHT22;24282;48.400;10.808;2023-04-16T02:37:00;6.50;87.80
38514;DHT22;24282;48.400;10.808;2023-04-16T02:39:26;6.50;87.80
38514;DHT22;24282;48.400;10.808;2023-04-16T02:41:52;6.50;87.90
38514;DHT22;24282;48.400;10.808;2023-04-16T02:44:19;6.50;87.90
38514;DHT22;24282;48.400;10.808;2023-04-16T02:46:46;6.50;87.90
38514;DHT22;24282;48.400;10.808;2023-04-16T02:49:11;6.50;87.90
38514;DHT22;24282;48.400;10.808;2023-04-16T02:51:37;6.50;87.80
38514;DHT22;24282;48.400;10.808;2023-04-16T02:54:03;6.50;88.00
38514;DHT22;24282;48.400;10.808;2023-04-16T02:56:30;6.50;88.00
38514;DHT22;24282;48.400;10.808;2023-04-16T02:58:55;6.50;88.00
38514;DHT22;24282;48.400;10.808;2023-04-16T03:01:21;6.50;88.00
38514;DHT22;24282;48.400;10.808;2023-04-16T03:03:47;6.50;88.00
38514;DHT22;24282;48.400;10.808;2023-04-16T03:06:13;6.50;87.90
38514;DHT22;24282;48.400;10.808;2023-04-16T03:08:38;6.50;87.90
38514;DHT22;24282;48.400;10.808;2023-04-16T03:11:04;6.50;87.90
38514;DHT22;24282;48.400;10.808;2023-04-16T03:13:30;6.50;87.90
38514;DHT22;24282;48.400;10.808;2023-04-16T03:15:56;6.50;87.90
38514;DHT22;24282;48.400;10.808;2023-04-16T03:18:21;6.60;87.80
38514;DHT22;24282;48.400;10.808;2023-04-16T03:20:52;6.50;87.80
38514;DHT22;24282;48.400;10.808;2023-04-16T03:23:18;6.50;87.70
38514;DHT22;24282;48.400;10.808;2023-04-16T03:25:44;6.60;87.80
38514;DHT22;24282;48.400;10.808;2023-04-16T03:28:14;6.50;87.90
38514;DHT22;24282;48.400;10.808;2023-04-16T03:30:41;6.60;87.90
38514;DHT22;24282;48.400;10.808;2023-04-16T03:33:07;6.60;88.00
38514;DHT22;24282;48.400;10.808;2023-04-16T03:35:33;6.50;88.00
38514;DHT22;24282;48.400;10.808;2023-04-16T03:38:00;6.60;87.90
38514;DHT22;24282;48.400;10.808;2023-04-16T03:40:27;6.60;87.90
38514;DHT22;24282;48.400;10.808;2023-04-16T03:42:53;6.60;88.10
38514;DHT22;24282;48.400;10.808;2023-04-16T03:45:18;6.60;88.20
38514;DHT22;24282;48.400;10.808;2023-04-16T03:47:46;6.60;88.20
38514;DHT22;24282;48.400;10.808;2023-04-16T03:50:20;6.60;88.10
38514;DHT22;24282;48.400;10.808;2023-04-16T03:52:46;6.60;88.30
38514;DHT22;24282;48.400;10.808;2023-04-16T03:55:16;6.60;88.20
38514;DHT22;24282;48.400;10.808;2023-04-16T03:57:42;6.60;88.20
38514;DHT22;24282;48.400;10.808;2023-04-16T04:00:11;6.60;88.30
38514;DHT22;24282;48.400;10.808;2023-04-16T04:02:40;6.60;88.10
38514;DHT22;24282;48.400;10.808;2023-04-16T04:05:11;6.60;88.20
38514;DHT22;24282;48.400;10.808;2023-04-16T04:07:37;6.60;88.30
38514;DHT22;24282;48.400;10.808;2023-04-16T04:10:02;6.60;88.40
38514;DHT22;24282;48.400;10.808;2023-04-16T04:12:33;6.60;88.30
38514;DHT22;24282;48.400;10.808;2023-04-16T04:14:58;6.60;88.40
38514;DHT22;24282;48.400;10.808;2023-04-16T04:17:26;6.60;88.30
38514;DHT22;24282;48.400;10.808;2023-04-16T04:19:51;6.60;88.30
38514;DHT22;24282;48.400;10.808;2023-04-16T04:22:19;6.60;88.40
38514;DHT22;24282;48.400;10.808;2023-04-16T04:24:45;6.60;88.20
38514;DHT22;24282;48.400;10.808;2023-04-16T04:27:11;6.60;88.30
38514;DHT22;24282;48.400;10.808;2023-04-16T04:29:37;6.60;88.20
38514;DHT22;24282;48.400;10.808;2023-04-16T04:32:03;6.60;88.20
38514;DHT22;24282;48.400;10.808;2023-04-16T04:34:29;6.60;88.20
38514;DHT22;24282;48.400;10.808;2023-04-16T04:36:56;6.60;88.20
38514;DHT22;24282;48.400;10.808;2023-04-16T04:39:22;6.60;88.20
38514;DHT22;24282;48.400;10.808;2023-04-16T04:41:48;6.70;88.20
38514;DHT22;24282;48.400;10.808;2023-04-16T04:44:17;6.70;88.10
38514;DHT22;24282;48.400;10.808;2023-04-16T04:46:43;6.70;88.00
38514;DHT22;24282;48.400;10.808;2023-04-16T04:49:09;6.70;88.10
38514;DHT22;24282;48.400;10.808;2023-04-16T04:51:35;6.70;88.10
38514;DHT22;24282;48.400;10.808;2023-04-16T04:54:01;6.60;88.30
38514;DHT22;24282;48.400;10.808;2023-04-16T04:56:27;6.60;88.50
38514;DHT22;24282;48.400;10.808;2023-04-16T04:58:54;6.70;88.40
38514;DHT22;24282;48.400;10.808;2023-04-16T05:01:20;6.60;88.40
38514;DHT22;24282;48.400;10.808;2023-04-16T05:03:46;6.70;88.50
38514;DHT22;24282;48.400;10.808;2023-04-16T05:06:11;6.70;88.40
38514;DHT22;24282;48.400;10.808;2023-04-16T05:08:37;6.70;88.50
38514;DHT22;24282;48.400;10.808;2023-04-16T05:11:03;6.70;88.50
38514;DHT22;24282;48.400;10.808;2023-04-16T05:13:28;6.70;88.50
38514;DHT22;24282;48.400;10.808;2023-04-16T05:15:54;6.70;88.60
38514;DHT22;24282;48.400;10.808;2023-04-16T05:18:20;6.70;88.60
38514;DHT22;24282;48.400;10.808;2023-04-16T05:20:46;6.80;88.60
38514;DHT22;24282;48.400;10.808;2023-04-16T05:23:11;6.80;88.60
38514;DHT22;24282;48.400;10.808;2023-04-16T05:25:37;6.80;88.70
38514;DHT22;24282;48.400;10.808;2023-04-16T05:28:03;6.80;88.70
38514;DHT22;24282;48.400;10.808;2023-04-16T05:30:28;6.80;88.70
38514;DHT22;24282;48.400;10.808;2023-04-16T05:32:54;6.80;88.60
38514;DHT22;24282;48.400;10.808;2023-04-16T05:35:20;6.80;88.60
38514;DHT22;24282;48.400;10.808;2023-04-16T05:37:45;6.80;88.60
38514;DHT22;24282;48.400;10.808;2023-04-16T05:40:13;6.80;88.70
38514;DHT22;24282;48.400;10.808;2023-04-16T05:42:38;6.80;88.70
38514;DHT22;24282;48.400;10.808;2023-04-16T05:45:05;6.80;88.80
38514;DHT22;24282;48.400;10.808;2023-04-16T05:47:31;6.90;88.80
38514;DHT22;24282;48.400;10.808;2023-04-16T05:49:56;6.90;88.90
38514;DHT22;24282;48.400;10.808;2023-04-16T05:52:22;6.90;88.90
38514;DHT22;24282;48.400;10.808;2023-04-16T05:54:48;6.90;88.90
38514;DHT22;24282;48.400;10.808;2023-04-16T05:57:13;6.90;89.00
38514;DHT22;24282;48.400;10.808;2023-04-16T05:59:39;6.90;89.10
38514;DHT22;24282;48.400;10.808;2023-04-16T06:02:05;6.90;89.00
38514;DHT22;24282;48.400;10.808;2023-04-16T06:04:31;6.90;88.90
38514;DHT22;24282;48.400;10.808;2023-04-16T06:06:57;7.00;88.90
38514;DHT22;24282;48.400;10.808;2023-04-16T06:09:22;6.90;88.80
38514;DHT22;24282;48.400;10.808;2023-04-16T06:11:49;7.00;88.70
38514;DHT22;24282;48.400;10.808;2023-04-16T06:14:15;7.00;88.70
38514;DHT22;24282;48.400;10.808;2023-04-16T06:16:40;7.00;88.80
38514;DHT22;24282;48.400;10.808;2023-04-16T06:19:06;7.00;88.90
38514;DHT22;24282;48.400;10.808;2023-04-16T06:21:32;7.00;88.80
38514;DHT22;24282;48.400;10.808;2023-04-16T06:23:58;7.10;88.80
38514;DHT22;24282;48.400;10.808;2023-04-16T06:26:23;7.10;88.60
38514;DHT22;24282;48.400;10.808;2023-04-16T06:28:49;7.10;88.60
38514;DHT22;24282;48.400;10.808;2023-04-16T06:31:15;7.10;88.70
38514;DHT22;24282;48.400;10.808;2023-04-16T06:33:40;7.10;88.60
38514;DHT22;24282;48.400;10.808;2023-04-16T06:36:06;7.10;88.70
38514;DHT22;24282;48.400;10.808;2023-04-16T06:38:32;7.20;88.70
38514;DHT22;24282;48.400;10.808;2023-04-16T06:40:58;7.20;88.60
38514;DHT22;24282;48.400;10.808;2023-04-16T06:43:24;7.20;88.70
38514;DHT22;24282;48.400;10.808;2023-04-16T06:45:50;7.20;88.60
38514;DHT22;24282;48.400;10.808;2023-04-16T06:48:15;7.20;88.70
38514;DHT22;24282;48.400;10.808;2023-04-16T06:50:41;7.30;88.70
38514;DHT22;24282;48.400;10.808;2023-04-16T06:53:07;7.30;88.40
38514;DHT22;24282;48.400;10.808;2023-04-16T06:55:33;7.30;88.30
38514;DHT22;24282;48.400;10.808;2023-04-16T06:57:58;7.30;88.10
38514;DHT22;24282;48.400;10.808;2023-04-16T07:00:24;7.30;88.20
38514;DHT22;24282;48.400;10.808;2023-04-16T07:02:50;7.30;88.20
38514;DHT22;24282;48.400;10.808;2023-04-16T07:05:16;7.30;88.40
38514;DHT22;24282;48.400;10.808;2023-04-16T07:07:41;7.30;88.60
38514;DHT22;24282;48.400;10.808;2023-04-16T07:10:07;7.40;88.70
38514;DHT22;24282;48.400;10.808;2023-04-16T07:12:33;7.40;88.70
38514;DHT22;24282;48.400;10.808;2023-04-16T07:14:59;7.40;88.60
38514;DHT22;24282;48.400;10.808;2023-04-16T07:17:24;7.40;88.50
38514;DHT22;24282;48.400;10.808;2023-04-16T07:19:51;7.40;88.60
38514;DHT22;24282;48.400;10.808;2023-04-16T07:22:16;7.40;88.70
38514;DHT22;24282;48.400;10.808;2023-04-16T07:24:42;7.50;88.70
38514;DHT22;24282;48.400;10.808;2023-04-16T07:27:08;7.50;88.70
38514;DHT22;24282;48.400;10.808;2023-04-16T07:29:33;7.50;88.60
38514;DHT22;24282;48.400;10.808;2023-04-16T07:31:59;7.50;88.60
38514;DHT22;24282;48.400;10.808;2023-04-16T07:34:25;7.50;88.60
38514;DHT22;24282;48.400;10.808;2023-04-16T07:36:50;7.50;88.60
38514;DHT22;24282;48.400;10.808;2023-04-16T07:39:16;7.50;88.60
38514;DHT22;24282;48.400;10.808;2023-04-16T07:41:42;7.50;88.70
38514;DHT22;24282;48.400;10.808;2023-04-16T07:44:08;7.50;88.80
38514;DHT22;24282;48.400;10.808;2023-04-16T07:46:34;7.50;88.90
38514;DHT22;24282;48.400;10.808;2023-04-16T07:48:59;7.60;88.90
38514;DHT22;24282;48.400;10.808;2023-04-16T07:51:25;7.60;88.90
38514;DHT22;24282;48.400;10.808;2023-04-16T07:53:51;7.60;88.70
38514;DHT22;24282;48.400;10.808;2023-04-16T07:56:17;7.60;88.70
38514;DHT22;24282;48.400;10.808;2023-04-16T07:58:43;7.60;88.70
38514;DHT22;24282;48.400;10.808;2023-04-16T08:01:08;7.60;88.80
38514;DHT22;24282;48.400;10.808;2023-04-16T08:03:34;7.60;88.80
38514;DHT22;24282;48.400;10.808;2023-04-16T08:06:00;7.60;88.90
38514;DHT22;24282;48.400;10.808;2023-04-16T08:08:25;7.70;89.00
38514;DHT22;24282;48.400;10.808;2023-04-16T08:10:52;7.70;89.20
38514;DHT22;24282;48.400;10.808;2023-04-16T08:13:21;7.70;89.30
38514;DHT22;24282;48.400;10.808;2023-04-16T08:15:47;7.80;89.40
38514;DHT22;24282;48.400;10.808;2023-04-16T08:18:13;7.80;89.40
38514;DHT22;24282;48.400;10.808;2023-04-16T08:20:40;7.90;89.30
38514;DHT22;24282;48.400;10.808;2023-04-16T08:23:06;7.90;89.20
38514;DHT22;24282;48.400;10.808;2023-04-16T08:25:32;7.90;89.20
38514;DHT22;24282;48.400;10.808;2023-04-16T08:27:57;8.00;89.30
38514;DHT22;24282;48.400;10.808;2023-04-16T08:30:23;8.10;89.40
38514;DHT22;24282;48.400;10.808;2023-04-16T08:32:49;8.20;89.50
38514;DHT22;24282;48.400;10.808;2023-04-16T08:35:15;8.20;89.40
38514;DHT22;24282;48.400;10.808;2023-04-16T08:37:41;8.20;89.20
38514;DHT22;24282;48.400;10.808;2023-04-16T08:40:07;8.30;89.10
38514;DHT22;24282;48.400;10.808;2023-04-16T08:42:38;8.40;89.00
38514;DHT22;24282;48.400;10.808;2023-04-16T08:45:13;8.40;89.00
38514;DHT22;24282;48.400;10.808;2023-04-16T08:47:45;8.40;89.00
38514;DHT22;24282;48.400;10.808;2023-04-16T08:50:14;8.50;89.10
38514;DHT22;24282;48.400;10.808;2023-04-16T08:52:57;8.50;89.10
38514;DHT22;24282;48.400;10.808;2023-04-16T08:55:47;8.50;89.20
38514;DHT22;24282;48.400;10.808;2023-04-16T08:58:18;8.50;89.30
38514;DHT22;24282;48.400;10.808;2023-04-16T09:00:44;8.50;89.30
38514;DHT22;24282;48.400;10.808;2023-04-16T09:03:11;8.50;89.30
38514;DHT22;24282;48.400;10.808;2023-04-16T09:05:37;8.50;89.20
38514;DHT22;24282;48.400;10.808;2023-04-16T09:08:04;8.50;89.10
38514;DHT22;24282;48.400;10.808;2023-04-16T09:10:31;8.50;89.10
38514;DHT22;24282;48.400;10.808;2023-04-16T09:12:57;8.50;89.30
38514;DHT22;24282;48.400;10.808;2023-04-16T09:15:23;8.60;89.50
38514;DHT22;24282;48.400;10.808;2023-04-16T09:17:52;8.70;89.50
38514;DHT22;24282;48.400;10.808;2023-04-16T09:20:19;8.70;89.50
38514;DHT22;24282;48.400;10.808;2023-04-16T09:22:45;8.70;89.60
38514;DHT22;24282;48.400;10.808;2023-04-16T09:25:11;8.80;89.70
38514;DHT22;24282;48.400;10.808;2023-04-16T09:27:38;8.80;89.80
38514;DHT22;24282;48.400;10.808;2023-04-16T09:30:25;8.90;89.80
38514;DHT22;24282;48.400;10.808;2023-04-16T09:33:10;8.90;89.80
38514;DHT22;24282;48.400;10.808;2023-04-16T09:35:48;8.90;90.00
38514;DHT22;24282;48.400;10.808;2023-04-16T09:38:14;8.90;90.10
38514;DHT22;24282;48.400;10.808;2023-04-16T09:40:40;9.00;90.00
38514;DHT22;24282;48.400;10.808;2023-04-16T09:43:13;8.90;89.90
38514;DHT22;24282;48.400;10.808;2023-04-16T09:45:53;8.90;89.60
38514;DHT22;24282;48.400;10.808;2023-04-16T09:48:32;8.90;89.30
38514;DHT22;24282;48.400;10.808;2023-04-16T09:50:59;8.90;89.10
38514;DHT22;24282;48.400;10.808;2023-04-16T09:53:29;9.00;89.10
38514;DHT22;24282;48.400;10.808;2023-04-16T09:55:59;9.00;89.00
38514;DHT22;24282;48.400;10.808;2023-04-16T09:58:25;9.00;88.90
38514;DHT22;24282;48.400;10.808;2023-04-16T10:01:01;9.00;89.10
38514;DHT22;24282;48.400;10.808;2023-04-16T10:03:31;9.10;89.00
38514;DHT22;24282;48.400;10.808;2023-04-16T10:06:18;9.10;89.00
38514;DHT22;24282;48.400;10.808;2023-04-16T10:08:53;9.10;89.10
38514;DHT22;24282;48.400;10.808;2023-04-16T10:11:21;9.10;89.20
38514;DHT22;24282;48.400;10.808;2023-04-16T10:13:47;9.10;89.20
38514;DHT22;24282;48.400;10.808;2023-04-16T10:16:13;9.20;89.20
38514;DHT22;24282;48.400;10.808;2023-04-16T10:18:40;9.10;89.20
38514;DHT22;24282;48.400;10.808;2023-04-16T10:21:07;9.10;89.40
38514;DHT22;24282;48.400;10.808;2023-04-16T10:23:37;9.10;89.50
38514;DHT22;24282;48.400;10.808;2023-04-16T10:26:04;9.10;89.50
38514;DHT22;24282;48.400;10.808;2023-04-16T10:28:30;9.10;89.40
38514;DHT22;24282;48.400;10.808;2023-04-16T10:30:56;9.10;89.40
38514;DHT22;24282;48.400;10.808;2023-04-16T10:33:32;9.00;89.40
38514;DHT22;24282;48.400;10.808;2023-04-16T10:36:13;9.10;89.50
38514;DHT22;24282;48.400;10.808;2023-04-16T10:38:48;9.00;89.50
38514;DHT22;24282;48.400;10.808;2023-04-16T10:41:14;9.00;89.60
38514;DHT22;24282;48.400;10.808;2023-04-16T10:43:47;9.00;89.70
38514;DHT22;24282;48.400;10.808;2023-04-16T10:48:42;9.00;89.80
38514;DHT22;24282;48.400;10.808;2023-04-16T10:53:55;9.00;89.80
38514;DHT22;24282;48.400;10.808;2023-04-16T10:56:25;8.90;89.40
38514;DHT22;24282;48.400;10.808;2023-04-16T10:58:53;8.90;89.40
38514;DHT22;24282;48.400;10.808;2023-04-16T11:01:47;8.90;89.50
38514;DHT22;24282;48.400;10.808;2023-04-16T11:07:16;8.90;89.70
38514;DHT22;24282;48.400;10.808;2023-04-16T11:12:55;8.90;89.90
38514;DHT22;24282;48.400;10.808;2023-04-16T11:15:21;8.90;90.00
38514;DHT22;24282;48.400;10.808;2023-04-16T11:17:50;8.90;90.00
38514;DHT22;24282;48.400;10.808;2023-04-16T11:20:21;8.90;89.80
38514;DHT22;24282;48.400;10.808;2023-04-16T11:22:48;8.90;89.70
38514;DHT22;24282;48.400;10.808;2023-04-16T11:25:27;9.00;89.50
38514;DHT22;24282;48.400;10.808;2023-04-16T11:27:56;9.00;89.50
38514;DHT22;24282;48.400;10.808;2023-04-16T11:30:37;9.10;89.50
38514;DHT22;24282;48.400;10.808;2023-04-16T11:33:10;9.10;89.20
38514;DHT22;24282;48.400;10.808;2023-04-16T11:35:39;9.20;88.40
38514;DHT22;24282;48.400;10.808;2023-04-16T11:38:05;9.10;88.50
38514;DHT22;24282;48.400;10.808;2023-04-16T11:40:32;9.20;88.80
38514;DHT22;24282;48.400;10.808;2023-04-16T11:43:02;9.20;88.90
38514;DHT22;24282;48.400;10.808;2023-04-16T11:45:28;9.20;89.20
38514;DHT22;24282;48.400;10.808;2023-04-16T11:47:54;9.30;89.00
38514;DHT22;24282;48.400;10.808;2023-04-16T11:52:50;9.30;88.80
38514;DHT22;24282;48.400;10.808;2023-04-16T11:55:17;9.30;89.20
38514;DHT22;24282;48.400;10.808;2023-04-16T11:57:42;9.30;88.90
38514;DHT22;24282;48.400;10.808;2023-04-16T12:00:10;9.40;88.10
38514;DHT22;24282;48.400;10.808;2023-04-16T12:02:41;9.40;87.70
38514;DHT22;24282;48.400;10.808;2023-04-16T12:05:37;9.50;87.70
38514;DHT22;24282;48.400;10.808;2023-04-16T12:08:07;9.50;87.70
38514;DHT22;24282;48.400;10.808;2023-04-16T12:10:51;9.60;88.40
38514;DHT22;24282;48.400;10.808;2023-04-16T12:13:17;9.70;88.80
38514;DHT22;24282;48.400;10.808;2023-04-16T12:15:45;9.80;88.70
38514;DHT22;24282;48.400;10.808;2023-04-16T12:18:11;10.00;86.90
38514;DHT22;24282;48.400;10.808;2023-04-16T12:20:39;9.90;87.00
38514;DHT22;24282;48.400;10.808;2023-04-16T12:23:06;10.00;87.40
38514;DHT22;24282;48.400;10.808;2023-04-16T12:25:33;10.00;87.30
38514;DHT22;24282;48.400;10.808;2023-04-16T12:27:59;10.10;86.50
38514;DHT22;24282;48.400;10.808;2023-04-16T12:30:26;10.20;85.30
38514;DHT22;24282;48.400;10.808;2023-04-16T12:33:12;10.20;86.20
38514;DHT22;24282;48.400;10.808;2023-04-16T12:35:40;10.20;86.10
38514;DHT22;24282;48.400;10.808;2023-04-16T12:38:06;10.30;86.90
38514;DHT22;24282;48.400;10.808;2023-04-16T12:40:32;10.50;85.70
38514;DHT22;24282;48.400;10.808;2023-04-16T12:42:58;10.50;85.70
38514;DHT22;24282;48.400;10.808;2023-04-16T12:45:24;10.60;86.00
38514;DHT22;24282;48.400;10.808;2023-04-16T12:47:50;10.70;85.20
38514;DHT22;24282;48.400;10.808;2023-04-16T12:50:17;10.80;85.80
38514;DHT22;24282;48.400;10.808;2023-04-16T12:52:42;10.80;86.60
38514;DHT22;24282;48.400;10.808;2023-04-16T12:55:09;10.80;86.10
38514;DHT22;24282;48.400;10.808;2023-04-16T12:57:34;10.80;85.80
38514;DHT22;24282;48.400;10.808;2023-04-16T13:00:00;10.80;86.00
38514;DHT22;24282;48.400;10.808;2023-04-16T13:02:26;10.90;84.30
38514;DHT22;24282;48.400;10.808;2023-04-16T13:04:52;10.90;83.60
38514;DHT22;24282;48.400;10.808;2023-04-16T13:07:18;10.80;84.30
38514;DHT22;24282;48.400;10.808;2023-04-16T13:09:44;10.80;84.90
38514;DHT22;24282;48.400;10.808;2023-04-16T13:12:10;10.80;83.70
38514;DHT22;24282;48.400;10.808;2023-04-16T13:14:37;10.80;84.00
38514;DHT22;24282;48.400;10.808;2023-04-16T13:17:02;10.80;83.40
38514;DHT22;24282;48.400;10.808;2023-04-16T13:19:29;10.90;84.00
38514;DHT22;24282;48.400;10.808;2023-04-16T13:21:55;10.90;83.00
38514;DHT22;24282;48.400;10.808;2023-04-16T13:24:21;10.90;83.60
38514;DHT22;24282;48.400;10.808;2023-04-16T13:26:49;10.90;83.10
38514;DHT22;24282;48.400;10.808;2023-04-16T13:29:15;10.70;84.10
38514;DHT22;24282;48.400;10.808;2023-04-16T13:31:40;10.70;84.90
38514;DHT22;24282;48.400;10.808;2023-04-16T13:34:06;10.70;85.00
38514;DHT22;24282;48.400;10.808;2023-04-16T13:36:32;10.60;85.50
38514;DHT22;24282;48.400;10.808;2023-04-16T13:38:59;10.60;86.10
38514;DHT22;24282;48.400;10.808;2023-04-16T13:41:24;10.60;85.30
38514;DHT22;24282;48.400;10.808;2023-04-16T13:43:50;10.50;85.60
38514;DHT22;24282;48.400;10.808;2023-04-16T13:46:16;10.40;86.00
38514;DHT22;24282;48.400;10.808;2023-04-16T13:48:43;10.40;86.40
38514;DHT22;24282;48.400;10.808;2023-04-16T13:51:10;10.40;86.30
38514;DHT22;24282;48.400;10.808;2023-04-16T13:53:36;10.40;86.10
38514;DHT22;24282;48.400;10.808;2023-04-16T13:56:02;10.40;86.20
38514;DHT22;24282;48.400;10.808;2023-04-16T13:58:31;10.30;86.30
38514;DHT22;24282;48.400;10.808;2023-04-16T14:00:57;10.30;86.40
38514;DHT22;24282;48.400;10.808;2023-04-16T14:03:24;10.20;86.50
38514;DHT22;24282;48.400;10.808;2023-04-16T14:05:51;10.20;86.70
38514;DHT22;24282;48.400;10.808;2023-04-16T14:08:18;10.10;86.80
38514;DHT22;24282;48.400;10.808;2023-04-16T14:10:46;10.10;87.10
38514;DHT22;24282;48.400;10.808;2023-04-16T14:13:12;10.00;86.80
38514;DHT22;24282;48.400;10.808;2023-04-16T14:15:38;9.90;86.60
38514;DHT22;24282;48.400;10.808;2023-04-16T14:18:04;9.90;86.70
38514;DHT22;24282;48.400;10.808;2023-04-16T14:20:29;9.90;86.80
38514;DHT22;24282;48.400;10.808;2023-04-16T14:22:55;9.80;87.00
38514;DHT22;24282;48.400;10.808;2023-04-16T14:25:21;9.80;87.30
38514;DHT22;24282;48.400;10.808;2023-04-16T14:27:47;9.70;87.50
38514;DHT22;24282;48.400;10.808;2023-04-16T14:30:13;9.70;87.40
38514;DHT22;24282;48.400;10.808;2023-04-16T14:32:39;9.70;87.50
38514;DHT22;24282;48.400;10.808;2023-04-16T14:35:05;9.70;87.70
38514;DHT22;24282;48.400;10.808;2023-04-16T14:37:31;9.60;87.80
38514;DHT22;24282;48.400;10.808;2023-04-16T14:40:00;9.60;87.80
38514;DHT22;24282;48.400;10.808;2023-04-16T14:42:26;9.60;87.90
38514;DHT22;24282;48.400;10.808;2023-04-16T14:44:52;9.60;88.10
38514;DHT22;24282;48.400;10.808;2023-04-16T14:47:18;9.50;88.20
38514;DHT22;24282;48.400;10.808;2023-04-16T14:49:43;9.60;88.20
38514;DHT22;24282;48.400;10.808;2023-04-16T14:52:09;9.50;88.30
38514;DHT22;24282;48.400;10.808;2023-04-16T14:54:35;9.50;88.30
38514;DHT22;24282;48.400;10.808;2023-04-16T14:57:01;9.50;88.40
38514;DHT22;24282;48.400;10.808;2023-04-16T14:59:27;9.50;88.70
38514;DHT22;24282;48.400;10.808;2023-04-16T15:01:54;9.50;88.60
38514;DHT22;24282;48.400;10.808;2023-04-16T15:04:21;9.50;88.80
38514;DHT22;24282;48.400;10.808;2023-04-16T15:06:47;9.50;88.50
38514;DHT22;24282;48.400;10.808;2023-04-16T15:09:13;9.50;88.10
38514;DHT22;24282;48.400;10.808;2023-04-16T15:11:39;9.40;88.40
38514;DHT22;24282;48.400;10.808;2023-04-16T15:14:05;9.40;88.60
38514;DHT22;24282;48.400;10.808;2023-04-16T15:16:31;9.40;88.70
38514;DHT22;24282;48.400;10.808;2023-04-16T15:18:57;9.40;88.60
38514;DHT22;24282;48.400;10.808;2023-04-16T15:21:24;9.40;88.50
38514;DHT22;24282;48.400;10.808;2023-04-16T15:23:51;9.50;88.10
38514;DHT22;24282;48.400;10.808;2023-04-16T15:26:17;9.50;88.10
38514;DHT22;24282;48.400;10.808;2023-04-16T15:28:42;9.50;88.00
38514;DHT22;24282;48.400;10.808;2023-04-16T15:31:08;9.40;88.20
38514;DHT22;24282;48.400;10.808;2023-04-16T15:33:34;9.40;88.60
38514;DHT22;24282;48.400;10.808;2023-04-16T15:36:00;9.40;88.90
38514;DHT22;24282;48.400;10.808;2023-04-16T15:38:25;9.50;88.70
38514;DHT22;24282;48.400;10.808;2023-04-16T15:40:53;9.50;88.50
38514;DHT22;24282;48.400;10.808;2023-04-16T15:43:18;9.60;88.40
38514;DHT22;24282;48.400;10.808;2023-04-16T15:45:44;9.50;88.40